Time;durP1;ratioP1;P1;durP2;ratioP2;P2;SDS_P1;SDS_P2;PMS_P1;PMS_P2;Temp;Humidity;BMP_temperature;BMP_pressure;BME280_temperature;BME280_humidity;BME280_pressure;Samples;Min_cycle;Max_cycle;Signal;HPM_P1;HPM_P2
2022/01/12 00:02:13;;;;;;;69.40;33.50;;;3.30;99.90;;;;;;5015273;28;20030;-88
2022/01/12 00:04:39;;;;;;;72.93;34.75;;;3.30;99.90;;;;;;5020475;28;20093;-87
2022/01/12 00:07:05;;;;;;;71.53;32.65;;;3.40;99.90;;;;;;5020116;28;20040;-87
2022/01/12 00:09:31;;;;;;;76.78;34.97;;;3.40;99.90;;;;;;5006489;28;20124;-87
2022/01/12 00:11:58;;;;;;;81.88;35.13;;;3.40;99.90;;;;;;5017172;28;20042;-87
2022/01/12 00:14:26;;;;;;;80.68;34.75;;;3.40;99.90;;;;;;5005064;28;20028;-87
2022/01/12 00:16:58;;;;;;;89.97;35.42;;;3.40;99.90;;;;;;5020690;28;20025;-86
2022/01/12 00:19:24;;;;;;;89.45;37.28;;;3.40;99.90;;;;;;5020026;28;20033;-85
2022/01/12 00:21:50;;;;;;;81.65;34.25;;;3.40;99.90;;;;;;5006518;28;20122;-85
2022/01/12 00:24:16;;;;;;;74.13;34.10;;;3.40;99.90;;;;;;5022248;28;20044;-85
2022/01/12 00:33:08;;;;;;;87.07;35.58;;;3.40;99.90;;;;;;5008692;28;20029;-86
2022/01/12 00:34:56;;;;;;;95.05;36.45;;;3.40;99.90;;;;;;5023719;28;20152;-85
2022/01/12 00:37:22;;;;;;;94.85;38.72;;;3.40;99.90;;;;;;5038597;28;20028;-86
2022/01/12 00:39:47;;;;;;;91.78;35.72;;;3.40;99.90;;;;;;5039211;28;20037;-85
2022/01/12 00:42:14;;;;;;;98.10;37.78;;;3.40;99.90;;;;;;5003050;28;20053;-86
2022/01/12 00:44:45;;;;;;;93.05;39.63;;;3.40;99.90;;;;;;5004352;28;20477;-85
2022/01/12 00:47:11;;;;;;;86.70;36.22;;;3.50;99.90;;;;;;5007622;28;20029;-86
2022/01/12 00:49:37;;;;;;;86.30;34.85;;;3.50;99.90;;;;;;5017796;28;20034;-85
2022/01/12 00:52:03;;;;;;;77.93;33.58;;;3.50;99.90;;;;;;5026058;28;20033;-84
2022/01/12 00:54:29;;;;;;;80.45;35.40;;;3.50;99.90;;;;;;5020808;28;20543;-86
2022/01/12 00:56:54;;;;;;;89.25;36.45;;;3.40;99.90;;;;;;5021590;28;20030;-86
2022/01/12 00:59:20;;;;;;;83.70;33.95;;;3.50;99.90;;;;;;5015203;28;20033;-84
2022/01/12 01:01:46;;;;;;;78.90;34.65;;;3.50;99.90;;;;;;5004873;28;20048;-86
2022/01/12 01:04:12;;;;;;;90.57;35.78;;;3.50;99.90;;;;;;5006970;28;20033;-86
2022/01/12 01:06:38;;;;;;;78.45;36.45;;;3.50;99.90;;;;;;5005016;28;20022;-85
2022/01/12 01:09:05;;;;;;;94.30;36.22;;;3.50;99.90;;;;;;5020548;28;20404;-86
2022/01/12 01:11:31;;;;;;;84.40;34.70;;;3.50;99.90;;;;;;5023315;28;20034;-85
2022/01/12 01:14:03;;;;;;;80.20;35.38;;;3.50;99.90;;;;;;5021973;28;20450;-86
2022/01/12 01:27:19;;;;;;;94.47;35.67;;;3.50;99.90;;;;;;5039579;28;20068;-85
2022/01/12 01:29:45;;;;;;;100.60;38.30;;;3.50;99.90;;;;;;5038538;28;20412;-86
2022/01/12 01:32:12;;;;;;;110.32;39.15;;;3.50;99.90;;;;;;5016746;28;20021;-86
2022/01/12 01:34:43;;;;;;;95.43;36.75;;;3.50;99.90;;;;;;5006216;28;20040;-86
2022/01/12 01:37:09;;;;;;;107.85;37.53;;;3.50;99.90;;;;;;5012628;28;20034;-85
2022/01/12 01:39:35;;;;;;;114.10;40.28;;;3.50;99.90;;;;;;5040526;28;20064;-86
2022/01/12 01:42:07;;;;;;;117.53;41.13;;;3.50;99.90;;;;;;5022453;28;20072;-86
2022/01/12 01:53:18;;;;;;;103.45;37.08;;;3.50;99.90;;;;;;5038748;28;20029;-86
2022/01/12 01:55:40;;;;;;;94.00;35.90;;;3.50;99.90;;;;;;5036542;28;20113;-87
2022/01/12 01:58:06;;;;;;;114.70;38.38;;;3.50;99.90;;;;;;5018931;28;20041;-85
2022/01/12 02:00:34;;;;;;;104.43;40.35;;;3.50;99.90;;;;;;5039886;28;20021;-86
2022/01/12 02:03:01;;;;;;;107.53;38.35;;;3.60;99.90;;;;;;5019725;28;20069;-86
2022/01/12 02:05:26;;;;;;;148.93;39.80;;;3.60;99.90;;;;;;5038623;28;20107;-86
2022/01/12 02:07:52;;;;;;;137.88;40.88;;;3.60;99.90;;;;;;5003535;28;20034;-86
2022/01/12 02:10:18;;;;;;;100.35;37.13;;;3.60;99.90;;;;;;5021209;28;20110;-86
2022/01/12 02:12:44;;;;;;;114.43;38.85;;;3.60;99.90;;;;;;5022291;28;20037;-86
2022/01/12 02:15:19;;;;;;;127.55;41.85;;;3.60;99.90;;;;;;5035593;28;20028;-86
2022/01/12 02:40:45;;;;;;;113.72;38.90;;;3.60;99.90;;;;;;5007334;28;20038;-86
2022/01/12 02:53:38;;;;;;;168.10;46.13;;;3.70;99.90;;;;;;5036908;28;20496;-86
2022/01/12 02:56:04;;;;;;;152.85;42.72;;;3.70;99.90;;;;;;5017700;28;20041;-86
2022/01/12 02:58:30;;;;;;;249.55;54.80;;;3.70;99.90;;;;;;5003281;28;20045;-86
2022/01/12 03:03:37;;;;;;;155.75;43.13;;;3.70;99.90;;;;;;5039058;28;20033;-86
2022/01/12 03:06:06;;;;;;;220.20;49.08;;;3.70;99.90;;;;;;5018733;28;20029;-85
2022/01/12 03:08:38;;;;;;;190.52;46.88;;;3.70;99.90;;;;;;5023287;28;20034;-86
2022/01/12 03:11:09;;;;;;;134.68;40.83;;;3.70;99.90;;;;;;5032946;28;20045;-85
2022/01/12 03:13:35;;;;;;;169.10;43.00;;;3.70;99.90;;;;;;5022560;28;20022;-86
2022/01/12 03:16:10;;;;;;;131.23;42.08;;;3.70;99.90;;;;;;5033472;28;20037;-86
2022/01/12 03:18:35;;;;;;;199.50;50.72;;;3.70;99.90;;;;;;5023455;28;20032;-85
2022/01/12 03:21:01;;;;;;;147.60;43.70;;;3.70;99.90;;;;;;5005228;28;20026;-86
2022/01/12 03:23:27;;;;;;;164.35;45.00;;;3.70;99.90;;;;;;5020602;28;20144;-87
2022/01/12 03:25:53;;;;;;;93.07;36.47;;;3.70;99.90;;;;;;5037858;28;20037;-86
2022/01/12 03:28:19;;;;;;;126.68;41.03;;;3.70;99.90;;;;;;5005463;28;20029;-87
2022/01/12 03:31:28;;;;;;;126.15;40.95;;;3.70;99.90;;;;;;5020372;28;20072;-87
2022/01/12 03:38:48;;;;;;;141.60;41.80;;;3.80;99.90;;;;;;5036846;28;20099;-87
2022/01/12 03:41:14;;;;;;;102.00;37.47;;;3.70;99.90;;;;;;5024261;28;20037;-87
2022/01/12 03:43:40;;;;;;;111.57;38.72;;;3.70;99.90;;;;;;5042273;28;20038;-87
2022/01/12 03:46:06;;;;;;;114.00;38.55;;;3.80;99.90;;;;;;5019777;28;20040;-85
2022/01/12 03:48:31;;;;;;;129.63;42.80;;;3.70;99.90;;;;;;5039548;28;20436;-86
2022/01/12 03:50:58;;;;;;;89.55;35.10;;;3.80;99.90;;;;;;5023939;28;20421;-87
2022/01/12 03:53:24;;;;;;;102.57;36.60;;;3.80;99.90;;;;;;5019309;28;20060;-87
2022/01/12 03:55:50;;;;;;;97.63;35.67;;;3.80;99.90;;;;;;5033926;28;20029;-85
2022/01/12 03:58:16;;;;;;;112.97;38.33;;;3.80;99.90;;;;;;5020733;28;20033;-85
2022/01/12 04:00:42;;;;;;;102.22;38.05;;;3.80;99.90;;;;;;5038965;28;20020;-86
2022/01/12 04:03:13;;;;;;;101.97;36.50;;;3.80;99.90;;;;;;5039663;28;20025;-87
2022/01/12 04:08:19;;;;;;;102.07;37.75;;;3.80;99.90;;;;;;5024350;28;20029;-87
2022/01/12 04:10:48;;;;;;;108.53;38.63;;;3.80;99.90;;;;;;5038688;28;20053;-86
2022/01/12 04:13:15;;;;;;;116.95;38.45;;;3.80;99.90;;;;;;5021772;28;20030;-86
2022/01/12 04:15:46;;;;;;;97.65;36.25;;;3.80;99.90;;;;;;5036891;28;20036;-86
2022/01/12 04:18:12;;;;;;;90.90;35.00;;;3.80;99.90;;;;;;5040438;28;20026;-87
2022/01/12 04:20:44;;;;;;;99.35;35.95;;;3.80;99.90;;;;;;5022952;28;20028;-87
2022/01/12 04:23:17;;;;;;;82.75;33.47;;;3.80;99.90;;;;;;5025793;28;20034;-87
2022/01/12 04:25:44;;;;;;;99.07;34.50;;;3.80;99.90;;;;;;5008197;28;20399;-84
2022/01/12 04:28:09;;;;;;;97.90;35.72;;;3.70;99.90;;;;;;5005049;28;20462;-86
2022/01/12 04:30:35;;;;;;;101.85;37.22;;;3.80;99.90;;;;;;5042349;28;20093;-87
2022/01/12 04:33:01;;;;;;;88.05;32.83;;;3.70;99.90;;;;;;5019207;28;20044;-85
2022/01/12 04:35:32;;;;;;;86.20;34.20;;;3.70;99.90;;;;;;5025324;28;20029;-87
2022/01/12 04:37:58;;;;;;;93.72;35.78;;;3.70;99.90;;;;;;5023859;28;20044;-86
2022/01/12 04:40:23;;;;;;;79.10;31.52;;;3.70;99.90;;;;;;5007131;28;20101;-86
2022/01/12 04:42:49;;;;;;;77.97;31.60;;;3.60;99.90;;;;;;5006460;28;20091;-86
2022/01/12 04:45:32;;;;;;;82.15;30.85;;;3.60;99.90;;;;;;5006083;28;20064;-86
2022/01/12 04:48:09;;;;;;;74.15;30.90;;;3.50;99.90;;;;;;5018095;28;20053;-86
2022/01/12 04:50:37;;;;;;;75.32;30.35;;;3.40;99.90;;;;;;5038216;28;20096;-85
2022/01/12 04:53:04;;;;;;;77.85;30.02;;;3.30;99.90;;;;;;5039457;28;20397;-85
2022/01/12 04:55:30;;;;;;;70.10;28.45;;;3.20;99.90;;;;;;5023171;28;20453;-86
2022/01/12 04:57:56;;;;;;;68.15;28.33;;;3.10;99.90;;;;;;5020375;28;20041;-86
2022/01/12 05:00:22;;;;;;;66.80;27.38;;;3.00;99.90;;;;;;5024435;28;20022;-86
2022/01/12 05:13:40;;;;;;;80.25;27.75;;;2.50;99.90;;;;;;5038957;28;20036;-88
2022/01/12 05:16:10;;;;;;;137.85;34.15;;;2.30;99.90;;;;;;5022075;28;20057;-86
2022/01/12 05:18:35;;;;;;;246.73;40.63;;;2.20;99.90;;;;;;5033653;28;20142;-82
2022/01/12 05:21:02;;;;;;;188.60;37.60;;;2.10;99.90;;;;;;5020211;28;20761;-82
2022/01/12 05:23:28;;;;;;;87.50;30.42;;;2.00;99.90;;;;;;5033753;28;20623;-83
2022/01/12 05:25:54;;;;;;;93.05;28.40;;;1.90;99.90;;;;;;5018515;28;20040;-83
2022/01/12 05:28:21;;;;;;;212.80;40.03;;;1.90;99.90;;;;;;5021355;28;20401;-83
2022/01/12 05:30:48;;;;;;;401.05;44.83;;;1.80;99.90;;;;;;5038961;28;20036;-82
2022/01/12 05:33:14;;;;;;;427.10;41.47;;;1.70;99.90;;;;;;5036185;28;20017;-82
2022/01/12 05:35:42;;;;;;;323.92;38.60;;;1.70;99.90;;;;;;5021292;28;20481;-81
2022/01/12 05:38:09;;;;;;;310.33;44.05;;;1.60;99.90;;;;;;5035686;28;20026;-82
2022/01/12 05:40:35;;;;;;;262.83;34.40;;;1.60;99.90;;;;;;5035824;28;20101;-81
2022/01/12 05:43:02;;;;;;;199.80;31.23;;;1.50;99.90;;;;;;5017362;28;20042;-82
2022/01/12 05:45:32;;;;;;;344.25;49.95;;;1.40;99.90;;;;;;5036986;28;20033;-82
2022/01/12 05:50:25;;;;;;;341.63;39.67;;;1.30;99.90;;;;;;5035827;28;20053;-82
2022/01/12 05:52:50;;;;;;;239.25;32.00;;;1.30;99.90;;;;;;5037993;28;20023;-83
2022/01/12 05:55:16;;;;;;;114.30;22.80;;;1.20;99.90;;;;;;5039755;28;20024;-82
2022/01/12 05:57:42;;;;;;;130.05;24.02;;;1.20;99.90;;;;;;5020244;28;20026;-83
2022/01/12 06:00:11;;;;;;;265.17;36.97;;;1.20;99.90;;;;;;5040716;28;20026;-81
2022/01/12 06:02:37;;;;;;;66.97;21.38;;;1.20;99.90;;;;;;5039740;28;20089;-82
2022/01/12 06:05:03;;;;;;;298.15;44.03;;;1.30;99.90;;;;;;5022641;28;20059;-82
2022/01/12 06:07:29;;;;;;;95.53;35.40;;;1.30;99.90;;;;;;5019750;28;20032;-81
2022/01/12 06:09:55;;;;;;;113.82;32.65;;;1.30;99.90;;;;;;5041153;28;20026;-81
2022/01/12 06:12:20;;;;;;;198.65;31.52;;;1.30;99.90;;;;;;5023973;28;20034;-82
2022/01/12 06:14:46;;;;;;;416.73;50.65;;;1.20;99.90;;;;;;5023722;28;20033;-82
2022/01/12 06:17:12;;;;;;;180.75;30.10;;;1.20;99.90;;;;;;5039238;28;20175;-82
2022/01/12 06:19:38;;;;;;;123.53;27.60;;;1.10;99.90;;;;;;5039784;28;20021;-82
2022/01/12 06:22:05;;;;;;;101.82;25.23;;;1.10;99.90;;;;;;5015504;28;20062;-82
2022/01/12 06:24:31;;;;;;;72.00;20.27;;;1.00;99.90;;;;;;5018062;28;20064;-83
2022/01/12 06:26:58;;;;;;;154.10;25.95;;;0.90;99.90;;;;;;5030901;28;20401;-82
2022/01/12 06:32:24;;;;;;;57.05;19.80;;;0.90;99.90;;;;;;4987979;28;20066;-81
2022/01/12 06:34:50;;;;;;;96.88;23.05;;;0.80;99.90;;;;;;5031491;28;20052;-81
2022/01/12 06:37:16;;;;;;;77.32;20.40;;;0.80;99.90;;;;;;5019310;28;20033;-81
2022/01/12 06:39:41;;;;;;;72.82;19.77;;;0.70;99.90;;;;;;4992989;28;20022;-81
2022/01/12 06:42:07;;;;;;;211.60;37.78;;;0.60;99.90;;;;;;5039965;28;20049;-81
2022/01/12 06:44:33;;;;;;;126.13;23.55;;;0.60;99.90;;;;;;5031049;28;20049;-81
2022/01/12 06:47:02;;;;;;;146.23;27.15;;;0.50;99.90;;;;;;5039681;28;20037;-81
2022/01/12 06:49:28;;;;;;;227.57;34.10;;;0.60;99.90;;;;;;5021534;28;20248;-82
2022/01/12 06:51:54;;;;;;;228.10;47.38;;;0.60;99.90;;;;;;5028412;28;20501;-81
2022/01/12 06:54:20;;;;;;;79.38;26.20;;;0.70;99.90;;;;;;5039112;28;20060;-82
2022/01/12 06:56:46;;;;;;;174.88;31.38;;;0.80;99.90;;;;;;5039482;28;20071;-81
2022/01/12 06:59:11;;;;;;;145.90;30.02;;;0.90;99.90;;;;;;5041255;28;20033;-82
2022/01/12 07:01:38;;;;;;;114.47;25.35;;;1.00;99.90;;;;;;5038000;28;20354;-80
2022/01/12 07:04:03;;;;;;;218.15;69.88;;;1.00;99.90;;;;;;5041554;28;20033;-80
2022/01/12 07:06:29;;;;;;;98.95;37.80;;;1.00;99.90;;;;;;5037648;28;20041;-81
2022/01/12 07:08:55;;;;;;;180.02;35.17;;;1.00;99.90;;;;;;5017067;28;20037;-82
2022/01/12 07:11:21;;;;;;;162.05;31.67;;;0.90;99.90;;;;;;4996080;28;20038;-82
2022/01/12 07:13:47;;;;;;;100.25;26.92;;;0.90;99.90;;;;;;5047312;28;20022;-82
2022/01/12 07:16:12;;;;;;;43.15;19.17;;;0.90;99.90;;;;;;5018596;28;20040;-82
2022/01/12 07:18:39;;;;;;;54.13;20.17;;;0.80;99.90;;;;;;5023259;28;20508;-81
2022/01/12 07:21:05;;;;;;;87.93;23.52;;;0.90;99.90;;;;;;5040440;28;20017;-81
2022/01/12 07:23:30;;;;;;;145.90;30.30;;;0.90;99.90;;;;;;5038502;28;20030;-85
2022/01/12 07:25:56;;;;;;;88.18;23.10;;;1.00;99.90;;;;;;5007863;28;20136;-84
2022/01/12 07:28:23;;;;;;;73.57;23.27;;;1.00;99.90;;;;;;5014267;28;20029;-87
2022/01/12 07:30:49;;;;;;;157.05;32.25;;;1.00;99.90;;;;;;5026534;28;20099;-84
2022/01/12 07:33:15;;;;;;;56.75;22.30;;;1.10;99.90;;;;;;5012282;28;20026;-85
2022/01/12 07:35:44;;;;;;;58.38;21.58;;;1.10;99.90;;;;;;5033769;28;20085;-81
2022/01/12 07:38:10;;;;;;;47.13;20.55;;;1.20;99.90;;;;;;5035422;28;20029;-82
2022/01/12 07:40:36;;;;;;;43.30;20.02;;;1.20;99.90;;;;;;5038227;28;20029;-82
2022/01/12 07:43:06;;;;;;;48.92;20.42;;;1.30;99.90;;;;;;5034566;28;20413;-80
2022/01/12 07:45:33;;;;;;;43.53;19.83;;;1.30;99.90;;;;;;5019884;28;20029;-81
2022/01/12 07:47:58;;;;;;;52.65;21.48;;;1.30;99.90;;;;;;5036824;28;20036;-82
2022/01/12 07:50:24;;;;;;;54.70;22.55;;;1.30;99.90;;;;;;5019148;28;20057;-81
2022/01/12 07:52:53;;;;;;;65.60;23.30;;;1.40;99.90;;;;;;5036213;28;20266;-81
2022/01/12 07:55:20;;;;;;;56.05;22.88;;;1.50;99.90;;;;;;5028984;28;20072;-82
2022/01/12 07:57:47;;;;;;;60.38;22.33;;;1.50;99.90;;;;;;5034885;28;20279;-82
2022/01/12 08:00:14;;;;;;;62.83;22.67;;;1.60;99.90;;;;;;5032406;28;20082;-82
2022/01/12 08:02:40;;;;;;;43.25;19.52;;;1.70;99.90;;;;;;5035896;28;20072;-84
2022/01/12 08:05:06;;;;;;;50.13;20.45;;;1.70;99.90;;;;;;5034205;28;20041;-83
2022/01/12 08:07:35;;;;;;;48.70;19.85;;;1.70;99.90;;;;;;5034696;28;20021;-83
2022/01/12 08:10:03;;;;;;;53.70;21.33;;;1.80;99.90;;;;;;5034946;28;20046;-83
2022/01/12 08:12:28;;;;;;;54.85;21.75;;;1.80;99.90;;;;;;5032548;28;20125;-83
2022/01/12 08:14:54;;;;;;;51.78;21.95;;;1.90;99.90;;;;;;5033334;28;20045;-83
2022/01/12 08:17:20;;;;;;;54.55;22.08;;;1.90;99.90;;;;;;5019461;28;20108;-83
2022/01/12 08:19:45;;;;;;;50.88;21.13;;;2.00;99.90;;;;;;5031660;28;20021;-82
2022/01/12 08:22:11;;;;;;;62.85;22.50;;;2.10;99.90;;;;;;5016451;28;20017;-83
2022/01/12 08:24:37;;;;;;;67.03;23.30;;;2.10;99.90;;;;;;5030495;28;20030;-83
2022/01/12 08:27:03;;;;;;;59.15;24.17;;;2.20;99.90;;;;;;5019420;28;20088;-82
2022/01/12 08:29:30;;;;;;;69.88;24.55;;;2.30;99.90;;;;;;5039817;28;20080;-82
2022/01/12 08:31:56;;;;;;;68.45;24.15;;;2.30;99.90;;;;;;5037966;28;20033;-82
2022/01/12 08:34:22;;;;;;;72.60;25.45;;;2.40;99.90;;;;;;5038662;28;20109;-82
2022/01/12 08:36:48;;;;;;;72.55;24.95;;;2.50;99.90;;;;;;5037566;28;20093;-82
2022/01/12 08:39:14;;;;;;;69.28;24.20;;;2.60;99.90;;;;;;5039822;28;20045;-82
2022/01/12 08:41:40;;;;;;;67.95;24.38;;;2.60;99.90;;;;;;5022011;28;20021;-81
2022/01/12 08:44:07;;;;;;;63.00;24.67;;;2.70;99.90;;;;;;5039462;28;20693;-82
2022/01/12 08:46:33;;;;;;;71.97;24.95;;;2.80;99.90;;;;;;5022825;28;20026;-82
2022/01/12 08:48:59;;;;;;;68.88;23.38;;;2.90;99.90;;;;;;5039787;28;20077;-82
2022/01/12 08:51:25;;;;;;;75.80;25.38;;;3.00;99.90;;;;;;5035745;28;20076;-81
2022/01/12 08:53:51;;;;;;;75.57;25.67;;;3.00;99.90;;;;;;5003071;28;20040;-82
2022/01/12 08:56:19;;;;;;;81.10;25.90;;;3.10;99.90;;;;;;5039931;28;20021;-81
2022/01/12 08:58:45;;;;;;;77.72;27.50;;;3.20;99.90;;;;;;5031298;28;20034;-82
2022/01/12 09:01:10;;;;;;;86.22;32.78;;;3.20;99.90;;;;;;5036032;28;20032;-82
2022/01/12 09:03:37;;;;;;;60.92;23.67;;;3.30;99.90;;;;;;5015970;28;20624;-81
2022/01/12 09:06:03;;;;;;;82.30;26.33;;;3.40;99.90;;;;;;5035239;28;20406;-81
2022/01/12 09:08:29;;;;;;;82.28;27.73;;;3.40;99.90;;;;;;5032443;28;20045;-82
2022/01/12 09:10:55;;;;;;;72.95;24.38;;;3.50;99.90;;;;;;5033468;28;20531;-82
2022/01/12 09:13:21;;;;;;;72.28;24.75;;;3.60;99.90;;;;;;5023131;28;20124;-82
2022/01/12 09:15:47;;;;;;;75.50;24.95;;;3.60;99.90;;;;;;5034258;28;20033;-82
2022/01/12 09:18:12;;;;;;;62.03;21.15;;;3.70;99.90;;;;;;5035265;28;20025;-84
2022/01/12 09:20:38;;;;;;;74.18;23.48;;;3.70;99.90;;;;;;5020468;28;20028;-84
2022/01/12 09:23:05;;;;;;;55.80;19.55;;;3.80;99.90;;;;;;5016312;28;20113;-85
2022/01/12 09:25:35;;;;;;;57.83;20.77;;;3.90;99.90;;;;;;5033385;28;20057;-83
2022/01/12 09:28:02;;;;;;;62.05;20.02;;;4.00;99.90;;;;;;5036320;28;20045;-83
2022/01/12 09:30:29;;;;;;;59.03;20.48;;;4.00;99.90;;;;;;5016142;28;20037;-85
2022/01/12 09:32:55;;;;;;;60.30;19.95;;;4.10;99.90;;;;;;5015187;28;20029;-84
2022/01/12 09:35:21;;;;;;;61.47;21.05;;;4.20;99.90;;;;;;5021067;28;20101;-84
2022/01/12 09:37:47;;;;;;;70.63;23.48;;;4.30;99.90;;;;;;5021994;28;20029;-84
2022/01/12 09:40:13;;;;;;;64.20;21.48;;;4.40;99.90;;;;;;5023713;28;20025;-83
2022/01/12 09:42:41;;;;;;;65.20;21.77;;;4.40;99.90;;;;;;5040711;28;20045;-83
2022/01/12 09:45:08;;;;;;;55.45;19.30;;;4.50;99.90;;;;;;5040059;28;20117;-84
2022/01/12 09:47:34;;;;;;;57.85;20.35;;;4.50;99.90;;;;;;5040741;28;20036;-83
2022/01/12 09:50:01;;;;;;;54.50;18.33;;;4.50;99.90;;;;;;5023469;28;20033;-84
2022/01/12 09:52:27;;;;;;;52.30;17.98;;;4.50;99.90;;;;;;5040865;28;20021;-83
2022/01/12 09:54:53;;;;;;;49.58;17.75;;;4.60;99.90;;;;;;5023498;28;20061;-83
2022/01/12 09:57:18;;;;;;;47.85;18.17;;;4.60;99.90;;;;;;5042481;28;20091;-84
2022/01/12 09:59:44;;;;;;;45.15;17.25;;;4.70;99.90;;;;;;5040310;28;20090;-83
2022/01/12 10:02:18;;;;;;;44.33;17.08;;;4.70;99.90;;;;;;5023652;28;20033;-84
2022/01/12 10:04:44;;;;;;;41.80;17.17;;;4.70;99.90;;;;;;5024040;28;20040;-83
2022/01/12 10:07:11;;;;;;;47.72;16.23;;;4.70;99.90;;;;;;5040371;28;20018;-83
2022/01/12 10:09:45;;;;;;;37.92;15.07;;;4.80;99.90;;;;;;5039037;28;20022;-83
2022/01/12 10:12:16;;;;;;;39.00;14.60;;;4.80;99.90;;;;;;5039993;28;20041;-84
2022/01/12 10:14:49;;;;;;;39.50;15.38;;;4.90;99.90;;;;;;5041100;28;20025;-84
2022/01/12 10:17:16;;;;;;;39.22;14.25;;;4.90;99.90;;;;;;5042404;28;20026;-83
2022/01/12 10:19:42;;;;;;;37.78;13.55;;;4.90;99.90;;;;;;5022251;28;20026;-81
2022/01/12 10:22:11;;;;;;;40.55;13.75;;;5.00;99.90;;;;;;5041177;28;20512;-82
2022/01/12 10:24:41;;;;;;;38.22;13.60;;;5.00;99.90;;;;;;5039327;28;20029;-82
2022/01/12 10:27:25;;;;;;;37.45;12.75;;;5.00;99.90;;;;;;5038918;28;20112;-83
2022/01/12 10:30:01;;;;;;;37.13;12.98;;;5.10;99.90;;;;;;5043170;28;20029;-82
2022/01/12 10:32:27;;;;;;;36.85;13.57;;;5.10;99.90;;;;;;5011299;28;20137;-84
2022/01/12 10:34:52;;;;;;;43.80;13.43;;;5.20;99.90;;;;;;5018818;28;20111;-81
2022/01/12 10:37:26;;;;;;;45.85;11.38;;;5.20;99.90;;;;;;5016279;28;20033;-82
2022/01/12 10:39:54;;;;;;;42.95;10.68;;;5.30;99.90;;;;;;5027805;28;20729;-81
2022/01/12 10:42:22;;;;;;;47.88;12.63;;;5.30;99.90;;;;;;5036227;28;20028;-81
2022/01/12 10:45:06;;;;;;;38.30;10.50;;;5.40;99.90;;;;;;5034466;28;20046;-82
2022/01/12 10:47:32;;;;;;;38.42;10.10;;;5.40;99.90;;;;;;5035430;28;20100;-84
2022/01/12 10:50:08;;;;;;;42.47;10.40;;;5.50;99.90;;;;;;5000774;28;20477;-83
2022/01/12 10:52:50;;;;;;;43.90;10.32;;;5.60;99.90;;;;;;5031982;28;20109;-84
2022/01/12 10:55:17;;;;;;;34.13;10.20;;;5.60;99.90;;;;;;5036863;28;20112;-84
2022/01/12 10:57:45;;;;;;;40.25;11.00;;;5.70;99.90;;;;;;5000685;28;20022;-83
2022/01/12 11:00:24;;;;;;;40.15;11.50;;;5.70;99.90;;;;;;5033341;28;20030;-83
2022/01/12 11:02:59;;;;;;;45.13;11.10;;;5.80;99.90;;;;;;5019318;28;20033;-84
2022/01/12 11:05:27;;;;;;;42.47;11.73;;;5.70;99.90;;;;;;5025351;28;20021;-84
2022/01/12 11:07:53;;;;;;;41.65;10.95;;;5.70;99.90;;;;;;5037611;28;20025;-83
2022/01/12 11:10:20;;;;;;;42.75;11.88;;;5.70;99.90;;;;;;5033516;28;20147;-82
2022/01/12 11:12:48;;;;;;;33.80;10.88;;;5.60;99.90;;;;;;5031804;28;20060;-83
2022/01/12 11:15:17;;;;;;;40.65;10.80;;;5.60;99.90;;;;;;5035104;28;20037;-83
2022/01/12 11:17:45;;;;;;;41.70;11.10;;;5.60;99.90;;;;;;5032802;28;20506;-84
2022/01/12 11:20:28;;;;;;;35.80;10.80;;;5.60;99.90;;;;;;5033936;28;20148;-83
2022/01/12 11:22:56;;;;;;;43.78;10.10;;;5.50;99.90;;;;;;5030412;28;20480;-83
2022/01/12 11:25:47;;;;;;;45.70;9.60;;;5.50;99.90;;;;;;5034058;28;20361;-84
2022/01/12 11:28:35;;;;;;;33.25;8.18;;;5.50;99.90;;;;;;5031206;28;20099;-83
2022/01/12 11:31:04;;;;;;;51.38;9.13;;;5.60;99.90;;;;;;5030008;28;20064;-83
2022/01/12 11:33:30;;;;;;;38.55;8.13;;;5.60;99.90;;;;;;5017857;28;20121;-83
2022/01/12 11:35:58;;;;;;;44.55;9.65;;;5.60;99.90;;;;;;5035101;28;20026;-83
2022/01/12 11:38:32;;;;;;;28.55;8.70;;;5.60;99.90;;;;;;5031499;28;20026;-83
2022/01/12 11:41:23;;;;;;;34.03;7.95;;;5.70;99.90;;;;;;5033490;28;20025;-82
2022/01/12 11:43:54;;;;;;;39.78;8.38;;;5.80;99.90;;;;;;5015135;28;20113;-83
2022/01/12 11:46:22;;;;;;;34.83;8.20;;;5.70;99.90;;;;;;5034144;28;20059;-83
2022/01/12 11:48:53;;;;;;;37.97;7.80;;;5.80;99.90;;;;;;5025315;28;20057;-83
2022/01/12 11:51:35;;;;;;;26.55;7.68;;;5.80;99.90;;;;;;5033367;28;20089;-83
2022/01/12 11:54:09;;;;;;;;;;;5.80;99.90;;;;;;5017426;28;20042;-83
2022/01/12 11:56:36;;;;;;;29.27;7.18;;;5.80;99.90;;;;;;5032642;28;20009;-81
2022/01/12 11:59:12;;;;;;;32.65;7.72;;;5.80;99.90;;;;;;5015022;28;20022;-83
2022/01/12 12:01:44;;;;;;;22.27;6.65;;;5.80;99.90;;;;;;5031783;28;20637;-86
2022/01/12 12:04:27;;;;;;;27.98;7.82;;;5.80;99.90;;;;;;5036626;28;20584;-81
2022/01/12 12:07:10;;;;;;;27.27;7.65;;;5.90;99.90;;;;;;5040481;28;20049;-82
2022/01/12 12:09:39;;;;;;;29.50;8.52;;;5.90;99.90;;;;;;5038298;28;20060;-82
2022/01/12 12:12:16;;;;;;;31.35;9.73;;;6.00;99.90;;;;;;5039829;28;20099;-82
2022/01/12 12:14:54;;;;;;;29.98;9.48;;;6.00;99.90;;;;;;5037181;28;20025;-82
2022/01/12 12:17:22;;;;;;;34.78;10.75;;;6.00;99.90;;;;;;5040765;28;20091;-84
2022/01/12 12:19:49;;;;;;;29.80;10.18;;;6.00;99.90;;;;;;5037256;28;20021;-81
2022/01/12 12:22:21;;;;;;;31.48;11.27;;;6.00;99.90;;;;;;5038470;28;20029;-83
2022/01/12 12:24:53;;;;;;;25.90;9.43;;;6.00;99.90;;;;;;5039714;28;20033;-83
2022/01/12 12:27:21;;;;;;;26.17;9.07;;;5.90;99.90;;;;;;5039188;28;20104;-83
2022/01/12 12:29:48;;;;;;;26.02;8.52;;;5.80;99.90;;;;;;5023737;28;20532;-79
2022/01/12 12:32:15;;;;;;;22.10;8.80;;;5.80;99.90;;;;;;5039210;28;20045;-82
2022/01/12 12:34:43;;;;;;;26.25;9.00;;;5.80;99.90;;;;;;5039634;28;20493;-82
2022/01/12 12:37:11;;;;;;;23.40;8.90;;;5.80;99.90;;;;;;5036262;28;20048;-81
2022/01/12 12:39:40;;;;;;;38.40;10.57;;;5.70;99.90;;;;;;5050968;28;20145;-84
2022/01/12 12:42:18;;;;;;;31.83;10.43;;;5.70;99.90;;;;;;5038438;28;20033;-83
2022/01/12 12:44:46;;;;;;;30.45;10.40;;;5.70;99.90;;;;;;5035861;28;20038;-83
2022/01/12 12:47:14;;;;;;;26.67;9.52;;;5.70;99.90;;;;;;5035640;28;20080;-83
2022/01/12 12:49:48;;;;;;;32.28;10.27;;;5.70;99.90;;;;;;5036236;28;20021;-83
2022/01/12 12:52:27;;;;;;;30.58;9.73;;;5.70;99.90;;;;;;5035564;28;20042;-83
2022/01/12 12:54:54;;;;;;;27.17;9.55;;;5.60;99.90;;;;;;5035065;28;20116;-83
2022/01/12 12:57:21;;;;;;;28.77;10.13;;;5.70;99.90;;;;;;5020812;28;20068;-83
2022/01/12 13:00:11;;;;;;;25.15;10.38;;;5.60;99.90;;;;;;5039939;28;20037;-83
2022/01/12 13:02:39;;;;;;;29.00;11.07;;;5.70;99.90;;;;;;5035288;28;20017;-83
2022/01/12 13:05:11;;;;;;;23.13;9.55;;;5.70;99.90;;;;;;5035513;28;20026;-82
2022/01/12 13:07:39;;;;;;;21.33;9.02;;;5.70;99.90;;;;;;5020388;28;20536;-83
2022/01/12 13:10:26;;;;;;;27.33;9.23;;;5.70;99.90;;;;;;5022079;28;20795;-83
2022/01/12 13:12:55;;;;;;;24.42;8.93;;;5.70;99.90;;;;;;5029784;28;20040;-83
2022/01/12 13:15:25;;;;;;;25.75;9.23;;;5.60;99.90;;;;;;5032686;28;20409;-83
2022/01/12 13:18:00;;;;;;;31.65;9.60;;;5.70;99.90;;;;;;5035936;28;20351;-83
2022/01/12 13:23:03;;;;;;;24.08;8.75;;;5.60;99.90;;;;;;5039648;28;20056;-83
2022/01/12 13:25:29;;;;;;;22.15;9.00;;;5.60;99.90;;;;;;5018809;28;20018;-84
2022/01/12 13:27:56;;;;;;;33.40;8.70;;;5.60;99.90;;;;;;5020600;28;20037;-82
2022/01/12 13:30:27;;;;;;;25.17;9.15;;;5.60;99.90;;;;;;5038342;28;20052;-83
2022/01/12 13:32:54;;;;;;;;;;;5.50;99.90;;;;;;5035760;28;20404;-83
2022/01/12 13:35:30;;;;;;;42.83;9.77;;;5.50;99.90;;;;;;5036291;28;19916;-83
2022/01/12 13:37:59;;;;;;;25.35;9.57;;;5.50;99.90;;;;;;5036611;28;20021;-82
2022/01/12 13:40:33;;;;;;;28.15;8.93;;;5.50;99.90;;;;;;5038064;28;20095;-83
2022/01/12 13:43:00;;;;;;;23.70;8.98;;;5.40;99.90;;;;;;5035513;28;20013;-83
2022/01/12 13:45:38;;;;;;;25.88;9.07;;;5.40;99.90;;;;;;5019691;28;20030;-82
2022/01/12 13:48:12;;;;;;;33.58;9.68;;;5.40;99.90;;;;;;5035120;28;20022;-83
2022/01/12 13:50:39;;;;;;;36.97;9.65;;;5.40;99.90;;;;;;5040074;28;20041;-82
2022/01/12 13:53:05;;;;;;;30.10;9.30;;;5.40;99.90;;;;;;5030402;28;20029;-83
2022/01/12 13:55:33;;;;;;;23.77;8.88;;;5.30;99.90;;;;;;5020066;28;20098;-83
2022/01/12 13:58:04;;;;;;;29.80;9.73;;;5.30;99.90;;;;;;5039861;28;20101;-83
2022/01/12 14:00:30;;;;;;;35.08;10.43;;;5.30;99.90;;;;;;5036567;28;20096;-82
2022/01/12 14:02:56;;;;;;;49.03;11.38;;;5.30;99.90;;;;;;5033226;28;20524;-82
2022/01/12 14:05:30;;;;;;;32.63;9.82;;;5.20;99.90;;;;;;5035911;28;20048;-81
2022/01/12 14:08:04;;;;;;;28.25;9.18;;;5.20;99.90;;;;;;5034587;28;20117;-81
2022/01/12 14:10:30;;;;;;;29.17;9.15;;;5.20;99.90;;;;;;5035303;28;20063;-81